Time;durP1;ratioP1;P1;durP2;ratioP2;P2;SDS_P1;SDS_P2;PMS_P1;PMS_P2;Temp;Humidity;BMP_temperature;BMP_pressure;BME280_temperature;BME280_humidity;BME280_pressure;Samples;Min_cycle;Max_cycle;Signal;HPM_P1;HPM_P2
2023/01/07 00:00:30;;;;;;;27.63;19.10;;;;;;;8.90;100.00;101530.31;5053353;28;20386;-48
2023/01/07 00:02:56;;;;;;;31.83;19.67;;;;;;;8.88;100.00;101531.97;5054489;28;20025;-48
2023/01/07 00:05:21;;;;;;;30.52;19.05;;;;;;;8.88;100.00;101526.81;5053370;28;20370;-48
2023/01/07 00:07:46;;;;;;;32.75;20.10;;;;;;;8.90;100.00;101525.19;5054158;28;20350;-48
2023/01/07 00:10:11;;;;;;;37.75;21.42;;;;;;;8.92;100.00;101521.81;5054250;28;20083;-48
2023/01/07 00:12:37;;;;;;;33.25;21.33;;;;;;;8.92;100.00;101517.53;5053138;28;20037;-48
2023/01/07 00:15:03;;;;;;;29.85;20.60;;;;;;;8.92;100.00;101520.09;5054001;28;20104;-49
2023/01/07 00:17:29;;;;;;;39.22;20.88;;;;;;;8.93;100.00;101518.44;5053404;28;20036;-48
2023/01/07 00:19:54;;;;;;;33.20;22.30;;;;;;;8.90;100.00;101517.47;5053437;28;20024;-49
2023/01/07 00:22:19;;;;;;;40.72;22.80;;;;;;;8.88;100.00;101515.63;5054055;28;20024;-48
2023/01/07 00:24:45;;;;;;;37.08;23.75;;;;;;;8.93;100.00;101511.59;5053840;28;20397;-46
2023/01/07 00:27:10;;;;;;;39.17;22.77;;;;;;;8.95;100.00;101511.66;5053243;28;20075;-49
2023/01/07 00:29:35;;;;;;;40.22;23.85;;;;;;;8.97;100.00;101510.06;5053483;28;20484;-48
2023/01/07 00:32:01;;;;;;;38.15;23.13;;;;;;;8.98;100.00;101506.69;5053660;28;20388;-47
2023/01/07 00:34:26;;;;;;;41.08;24.45;;;;;;;8.98;100.00;101501.53;5053048;28;20100;-48
2023/01/07 00:37:16;;;;;;;40.90;24.00;;;;;;;8.98;100.00;101496.41;5053589;28;20473;-48
2023/01/07 00:39:36;;;;;;;40.17;24.48;;;;;;;8.96;100.00;101495.44;5053399;28;20044;-48
2023/01/07 00:44:45;;;;;;;41.72;23.95;;;;;;;8.90;100.00;101494.34;5053489;28;20052;-48
2023/01/07 00:47:11;;;;;;;41.97;24.83;;;;;;;8.86;100.00;101492.44;5053636;28;20021;-47
2023/01/07 00:49:36;;;;;;;38.13;23.42;;;;;;;8.81;100.00;101493.91;5052450;28;20068;-48
2023/01/07 00:52:01;;;;;;;39.85;25.42;;;;;;;8.77;100.00;101481.72;5053540;28;20059;-46
2023/01/07 00:54:27;;;;;;;42.67;24.67;;;;;;;8.77;100.00;101481.72;5053044;28;20112;-45
2023/01/07 00:56:52;;;;;;;44.45;25.50;;;;;;;8.75;100.00;101480.75;5052798;28;20046;-48
2023/01/07 00:59:17;;;;;;;44.65;25.67;;;;;;;8.75;100.00;101473.06;5053276;28;20029;-46
2023/01/07 01:01:42;;;;;;;42.40;24.23;;;;;;;8.71;100.00;101476.28;5052460;28;20460;-47
2023/01/07 01:04:08;;;;;;;42.47;23.85;;;;;;;8.72;100.00;101465.22;5053200;28;20587;-48
2023/01/07 01:06:33;;;;;;;35.83;21.70;;;;;;;8.69;100.00;101463.38;5052946;28;20029;-48
2023/01/07 01:08:59;;;;;;;38.78;20.77;;;;;;;8.68;100.00;101460.75;5052295;28;20076;-48
2023/01/07 01:11:24;;;;;;;32.13;20.35;;;;;;;8.65;100.00;101461.47;5053042;28;20032;-49
2023/01/07 01:13:49;;;;;;;34.88;20.77;;;;;;;8.62;100.00;101455.31;5052947;28;20089;-48
2023/01/07 01:16:16;;;;;;;37.38;21.85;;;;;;;8.62;100.00;101455.31;5052394;28;20526;-48
2023/01/07 01:18:42;;;;;;;34.85;20.25;;;;;;;8.65;100.00;101455.44;5052860;28;20063;-48
2023/01/07 01:21:10;;;;;;;31.83;20.85;;;;;;;8.63;100.00;101439.09;5052938;28;20457;-45
2023/01/07 01:23:36;;;;;;;36.25;20.90;;;;;;;8.63;100.00;101434.81;5051963;28;20033;-48
2023/01/07 01:26:06;;;;;;;32.38;20.10;;;;;;;8.54;100.00;101437.81;5052870;28;20024;-48
2023/01/07 01:28:32;;;;;;;34.08;19.55;;;;;;;8.62;100.00;101435.63;5052517;28;20134;-47
2023/01/07 01:30:58;;;;;;;35.67;20.35;;;;;;;8.66;100.00;101431.50;5051649;28;20025;-48
2023/01/07 01:33:23;;;;;;;33.13;20.15;;;;;;;8.60;100.00;101434.69;5053006;28;20139;-48
2023/01/07 01:35:48;;;;;;;34.45;21.67;;;;;;;8.63;100.00;101437.38;5052483;28;20021;-48
2023/01/07 01:38:14;;;;;;;35.10;20.88;;;;;;;8.63;100.00;101434.81;5052109;28;20104;-48
2023/01/07 01:40:39;;;;;;;30.48;19.58;;;;;;;8.65;100.00;101429.75;5052620;28;20025;-47
2023/01/07 01:43:27;;;;;;;34.20;20.75;;;;;;;8.65;100.00;101440.03;5052918;28;20108;-46
2023/01/07 01:45:53;;;;;;;31.75;19.35;;;;;;;8.65;100.00;101433.22;5052243;28;20096;-49
2023/01/07 01:48:20;;;;;;;32.72;19.65;;;;;;;8.63;100.00;101431.38;5052816;28;20052;-45
2023/01/07 01:50:47;;;;;;;32.13;19.15;;;;;;;8.62;100.00;101429.59;5051801;28;20040;-45
2023/01/07 01:53:23;;;;;;;35.13;19.45;;;;;;;8.63;100.00;101442.53;5052912;28;20029;-46
2023/01/07 01:56:18;;;;;;;30.70;19.13;;;;;;;8.64;100.00;101440.84;5052289;28;20423;-47
2023/01/07 01:58:52;;;;;;;33.95;19.15;;;;;;;8.63;100.00;101436.50;5049226;28;20044;-48
2023/01/07 02:01:18;;;;;;;38.97;20.95;;;;;;;8.60;100.00;101431.22;5052557;28;20036;-48
2023/01/07 02:03:45;;;;;;;34.00;18.08;;;;;;;8.61;100.00;101443.25;5052216;28;20021;-47
2023/01/07 02:06:19;;;;;;;34.00;18.92;;;;;;;8.54;100.00;101440.41;5051961;28;20017;-47
2023/01/07 02:08:45;;;;;;;35.85;19.38;;;;;;;8.54;100.00;101437.81;5052282;28;20083;-48
2023/01/07 02:11:19;;;;;;;37.60;19.70;;;;;;;8.52;100.00;101439.47;5052511;28;20024;-48
2023/01/07 02:14:06;;;;;;;29.90;18.13;;;;;;;8.53;100.00;101436.09;5051416;28;20021;-47
2023/01/07 02:16:46;;;;;;;31.75;18.25;;;;;;;8.50;100.00;101430.78;5052403;28;20083;-47
2023/01/07 02:19:32;;;;;;;27.20;18.25;;;;;;;8.48;100.00;101440.13;5051868;28;20107;-48
2023/01/07 02:22:07;;;;;;;33.97;18.70;;;;;;;8.52;100.00;101436.88;5052596;28;20025;-45
2023/01/07 02:24:57;;;;;;;32.67;18.67;;;;;;;8.50;100.00;101435.91;5052231;28;20041;-47
2023/01/07 02:27:43;;;;;;;36.50;19.15;;;;;;;8.52;100.00;101436.00;5051695;28;20029;-48
2023/01/07 02:30:39;;;;;;;27.73;17.35;;;;;;;8.49;100.00;101426.44;5052245;28;20025;-48
2023/01/07 02:33:13;;;;;;;32.30;18.20;;;;;;;8.48;100.00;101432.41;5051731;28;20029;-47
2023/01/07 02:35:54;;;;;;;35.97;18.25;;;;;;;8.50;100.00;101435.06;5052200;28;20033;-48
2023/01/07 02:38:57;;;;;;;30.63;16.13;;;;;;;8.49;100.00;101434.16;5052310;28;20028;-45
2023/01/07 02:41:49;;;;;;;26.13;15.45;;;;;;;8.47;100.00;101433.22;5053251;28;20532;-48
2023/01/07 02:44:41;;;;;;;26.00;16.13;;;;;;;8.45;100.00;101424.50;5056011;28;20029;-47
2023/01/07 02:47:28;;;;;;;31.05;16.23;;;;;;;8.41;100.00;101422.63;5054985;28;20025;-48
2023/01/07 02:49:54;;;;;;;23.98;15.07;;;;;;;8.37;100.00;101423.28;5055818;28;20028;-47
2023/01/07 02:52:24;;;;;;;27.38;16.25;;;;;;;8.33;100.00;101419.69;5055861;28;20021;-49
2023/01/07 02:54:59;;;;;;;26.52;16.25;;;;;;;8.38;100.00;101420.78;5054705;28;20372;-45
2023/01/07 02:57:52;;;;;;;25.05;15.90;;;;;;;8.38;100.00;101419.91;5055596;28;20376;-48
2023/01/07 03:00:17;;;;;;;25.50;15.95;;;;;;;8.38;100.00;101419.91;5055538;28;20058;-48
2023/01/07 03:02:51;;;;;;;25.70;15.30;;;;;;;8.45;100.00;101416.81;5054452;28;20025;-48
2023/01/07 03:05:28;;;;;;;29.50;16.13;;;;;;;8.48;100.00;101421.25;5055555;28;20044;-48
2023/01/07 03:08:05;;;;;;;24.92;14.25;;;;;;;8.52;100.00;101407.72;5055443;28;20491;-48
2023/01/07 03:10:44;;;;;;;24.27;13.98;;;;;;;8.55;100.00;101406.19;5054902;28;20111;-47
2023/01/07 03:13:16;;;;;;;32.97;14.45;;;;;;;8.61;100.00;101407.28;5055660;28;20082;-48
2023/01/07 03:15:52;;;;;;;22.27;13.75;;;;;;;8.61;100.00;101394.44;5054397;28;20025;-48
2023/01/07 03:18:29;;;;;;;25.17;12.75;;;;;;;8.63;100.00;101391.13;5055179;28;20021;-49
2023/01/07 03:21:00;;;;;;;25.98;13.10;;;;;;;8.67;100.00;101392.16;5055133;28;20468;-46
2023/01/07 03:23:28;;;;;;;23.60;13.10;;;;;;;8.70;100.00;101385.47;5054599;28;20025;-47
2023/01/07 03:25:57;;;;;;;26.08;13.05;;;;;;;8.74;100.00;101389.06;5055361;28;20055;-45
2023/01/07 03:28:27;;;;;;;24.75;12.95;;;;;;;8.75;100.00;101384.81;5054999;28;20392;-44
2023/01/07 03:30:55;;;;;;;21.55;11.52;;;;;;;8.77;100.00;101378.06;5054199;28;20083;-48
2023/01/07 03:33:42;;;;;;;19.08;12.25;;;;;;;8.81;100.00;101380.81;5055110;28;20021;-47
2023/01/07 03:36:10;;;;;;;21.13;11.68;;;;;;;8.80;100.00;101383.31;5055087;28;20135;-48
2023/01/07 03:38:37;;;;;;;17.50;11.05;;;;;;;8.83;100.00;101368.94;5053820;28;20111;-49
2023/01/07 03:41:02;;;;;;;20.98;11.70;;;;;;;8.83;100.00;101370.59;5054829;28;20036;-47
2023/01/07 03:43:28;;;;;;;22.08;12.32;;;;;;;8.79;100.00;101361.91;5053852;28;20025;-45
2023/01/07 03:45:55;;;;;;;23.80;11.77;;;;;;;8.83;100.00;101371.50;5054935;28;20053;-47
2023/01/07 03:48:20;;;;;;;20.75;11.48;;;;;;;8.83;100.00;101363.78;5054880;28;20025;-48
2023/01/07 03:50:46;;;;;;;20.05;11.18;;;;;;;8.83;100.00;101357.75;5053656;28;20422;-49
2023/01/07 03:53:11;;;;;;;18.08;10.85;;;;;;;8.82;100.00;101362.03;5053844;28;20029;-44
2023/01/07 03:55:36;;;;;;;18.50;10.50;;;;;;;8.84;100.00;101350.09;5054184;28;20029;-47
2023/01/07 03:58:01;;;;;;;20.35;10.48;;;;;;;8.88;100.00;101341.75;5053632;28;20021;-48
2023/01/07 04:00:27;;;;;;;20.42;10.43;;;;;;;8.92;100.00;101352.16;5054363;28;20029;-46
2023/01/07 04:02:52;;;;;;;18.20;10.10;;;;;;;8.94;100.00;101346.25;5054396;28;20025;-48
2023/01/07 04:05:17;;;;;;;17.95;10.38;;;;;;;8.95;100.00;101347.13;5053399;28;20037;-47
2023/01/07 04:07:43;;;;;;;19.50;9.68;;;;;;;8.96;100.00;101343.75;5054022;28;20025;-49
2023/01/07 04:10:09;;;;;;;16.65;9.38;;;;;;;8.95;100.00;101336.84;5054184;28;20033;-49
2023/01/07 04:12:34;;;;;;;18.83;9.73;;;;;;;8.97;100.00;101335.22;5053171;28;20025;-48
2023/01/07 04:14:59;;;;;;;18.60;9.30;;;;;;;8.94;100.00;101335.97;5054322;28;20029;-49
2023/01/07 04:17:25;;;;;;;16.73;10.38;;;;;;;8.96;100.00;101333.47;5054284;28;20025;-45
2023/01/07 04:19:50;;;;;;;21.88;9.88;;;;;;;8.98;100.00;101326.72;5053113;28;20480;-48
2023/01/07 04:22:15;;;;;;;17.08;9.20;;;;;;;8.98;100.00;101321.56;5054218;28;20113;-48
2023/01/07 04:24:41;;;;;;;19.05;9.65;;;;;;;8.98;100.00;101316.44;5053638;28;20112;-47
2023/01/07 04:27:06;;;;;;;16.63;9.05;;;;;;;8.95;100.00;101304.31;5053163;28;20426;-47
2023/01/07 04:29:32;;;;;;;21.08;9.07;;;;;;;8.98;100.00;101308.72;5053395;28;20025;-47
2023/01/07 04:31:57;;;;;;;16.35;9.77;;;;;;;8.96;100.00;101300.94;5054044;28;20018;-46
2023/01/07 04:34:23;;;;;;;16.73;8.80;;;;;;;8.97;100.00;101309.53;5053115;28;20032;-48
2023/01/07 04:36:48;;;;;;;16.92;9.35;;;;;;;8.97;100.00;101299.25;5053310;28;20029;-48
2023/01/07 04:39:14;;;;;;;20.35;9.20;;;;;;;8.96;100.00;101300.94;5053777;28;20021;-48
2023/01/07 04:41:39;;;;;;;17.80;8.73;;;;;;;8.98;100.00;101295.88;5052830;28;20031;-48
2023/01/07 04:44:04;;;;;;;15.77;9.07;;;;;;;8.95;100.00;101288.00;5053699;28;20021;-46
2023/01/07 04:46:30;;;;;;;16.70;8.85;;;;;;;8.95;100.00;101281.19;5053457;28;20029;-48
2023/01/07 04:48:55;;;;;;;14.63;8.68;;;;;;;8.88;100.00;101285.19;5052851;28;20029;-48
2023/01/07 04:51:21;;;;;;;15.88;9.50;;;;;;;8.87;100.00;101290.22;5053542;28;20029;-46
2023/01/07 04:53:46;;;;;;;14.57;8.98;;;;;;;8.81;100.00;101293.44;5052463;28;20460;-49
2023/01/07 04:56:12;;;;;;;14.25;8.77;;;;;;;8.79;100.00;101292.50;5053340;28;20384;-49
2023/01/07 04:58:37;;;;;;;14.88;9.10;;;;;;;8.78;100.00;101277.88;5052943;28;20029;-49
2023/01/07 05:01:03;;;;;;;15.55;9.02;;;;;;;8.83;100.00;101290.91;5052692;28;20492;-47
2023/01/07 05:03:29;;;;;;;14.68;8.63;;;;;;;8.82;100.00;101279.78;5052918;28;20111;-43
2023/01/07 05:05:55;;;;;;;12.80;8.38;;;;;;;8.83;100.00;101278.06;5053444;28;20025;-44
2023/01/07 05:08:20;;;;;;;14.05;7.88;;;;;;;8.85;100.00;101273.88;5052312;28;20032;-47
2023/01/07 05:10:49;;;;;;;14.70;7.93;;;;;;;8.85;100.00;101279.88;5052842;28;20028;-47
2023/01/07 05:13:15;;;;;;;15.45;7.93;;;;;;;8.85;100.00;101277.31;5052988;28;20024;-45
2023/01/07 05:15:40;;;;;;;16.83;8.60;;;;;;;8.85;100.00;101276.47;5052212;28;20021;-47
2023/01/07 05:18:06;;;;;;;18.23;8.35;;;;;;;8.84;100.00;101272.97;5052966;28;20095;-48
2023/01/07 05:20:31;;;;;;;13.13;7.50;;;;;;;8.87;100.00;101268.00;5052867;28;20039;-48
2023/01/07 05:22:56;;;;;;;12.15;7.68;;;;;;;8.85;100.00;101271.31;5052244;28;20025;-47
2023/01/07 05:25:21;;;;;;;14.02;7.38;;;;;;;8.85;100.00;101269.59;5052836;28;20021;-49
2023/01/07 05:27:47;;;;;;;12.90;7.22;;;;;;;8.85;100.00;101264.47;5052519;28;20039;-45
2023/01/07 05:30:12;;;;;;;15.85;7.25;;;;;;;8.84;100.00;101262.69;5052198;28;20029;-48
2023/01/07 05:32:37;;;;;;;16.73;7.53;;;;;;;8.84;100.00;101260.13;5052752;28;20456;-48
2023/01/07 05:35:03;;;;;;;11.65;7.10;;;;;;;8.80;100.00;101255.69;5052975;28;20025;-49
2023/01/07 05:37:28;;;;;;;11.18;6.78;;;;;;;8.81;100.00;101262.59;5051857;28;20021;-47
2023/01/07 05:39:54;;;;;;;15.60;7.22;;;;;;;8.79;100.00;101265.91;5052773;28;20534;-47
2023/01/07 05:42:19;;;;;;;14.55;6.95;;;;;;;8.78;100.00;101266.72;5052751;28;20070;-47
2023/01/07 05:44:44;;;;;;;12.82;6.60;;;;;;;8.76;100.00;101263.22;5051876;28;20021;-47
2023/01/07 05:47:10;;;;;;;10.32;6.20;;;;;;;8.77;100.00;101263.28;5052631;28;20029;-48
2023/01/07 05:49:36;;;;;;;12.50;6.93;;;;;;;8.79;100.00;101253.94;5052394;28;20029;-48
2023/01/07 05:52:01;;;;;;;11.50;6.45;;;;;;;8.83;100.00;101247.22;5052029;28;20354;-48
2023/01/07 05:54:26;;;;;;;10.02;6.05;;;;;;;8.83;100.00;101250.69;5052706;28;20028;-48
2023/01/07 05:56:52;;;;;;;15.23;5.85;;;;;;;8.84;100.00;101246.41;5052088;28;20025;-45
2023/01/07 05:59:17;;;;;;;10.27;6.03;;;;;;;8.87;100.00;101241.41;5052293;28;20450;-48
2023/01/07 06:01:42;;;;;;;13.18;5.95;;;;;;;8.86;100.00;101245.66;5052519;28;20037;-48
2023/01/07 06:04:08;;;;;;;12.35;5.70;;;;;;;8.89;100.00;101253.50;5051540;28;20076;-46
2023/01/07 06:06:33;;;;;;;12.57;5.55;;;;;;;8.90;100.00;101244.97;5052343;28;20086;-48
2023/01/07 06:08:58;;;;;;;7.32;4.88;;;;;;;8.89;100.00;101238.06;5052479;28;20087;-44
2023/01/07 06:11:24;;;;;;;16.17;5.82;;;;;;;8.92;100.00;101239.03;5051669;28;20082;-47
2023/01/07 06:13:49;;;;;;;11.70;5.40;;;;;;;8.90;100.00;101232.13;5052415;28;20548;-48
2023/01/07 06:16:14;;;;;;;10.60;5.72;;;;;;;8.92;100.00;101228.75;5054225;28;20032;-46
2023/01/07 06:18:40;;;;;;;9.85;4.95;;;;;;;8.88;100.00;101226.06;5055400;28;20021;-44
2023/01/07 06:21:05;;;;;;;9.70;5.07;;;;;;;8.88;100.00;101220.03;5056344;28;20029;-45
2023/01/07 06:23:31;;;;;;;8.88;4.88;;;;;;;8.88;100.00;101218.34;5056201;28;20107;-47
2023/01/07 06:25:56;;;;;;;9.88;4.88;;;;;;;8.88;100.00;101218.34;5055311;28;20036;-45
2023/01/07 06:28:21;;;;;;;9.02;4.40;;;;;;;8.92;100.00;101218.47;5056387;28;20037;-45
2023/01/07 06:30:47;;;;;;;7.75;4.07;;;;;;;8.95;100.00;101218.59;5055923;28;20037;-46
2023/01/07 06:33:14;;;;;;;9.32;4.18;;;;;;;8.93;100.00;101209.94;5055382;28;20465;-46
2023/01/07 06:35:40;;;;;;;10.68;4.70;;;;;;;8.95;100.00;101210.88;5055676;28;20391;-47
2023/01/07 06:38:05;;;;;;;12.00;7.05;;;;;;;8.95;100.00;101208.31;5055943;28;20380;-48
2023/01/07 06:40:30;;;;;;;9.73;4.72;;;;;;;8.92;100.00;101208.19;5054923;28;20021;-44
2023/01/07 06:42:56;;;;;;;7.47;4.53;;;;;;;8.96;100.00;101204.94;5056103;28;20032;-43
2023/01/07 06:45:21;;;;;;;9.40;4.75;;;;;;;8.94;100.00;101204.88;5056003;28;20032;-47
2023/01/07 06:47:49;;;;;;;9.82;5.35;;;;;;;8.93;100.00;101197.09;5055037;28;20029;-47
2023/01/07 06:50:15;;;;;;;;;;;;;;;8.96;100.00;101200.69;5056228;28;20082;-48
2023/01/07 06:52:40;;;;;;;10.55;4.90;;;;;;;8.90;100.00;101195.28;5055391;28;20007;-47
2023/01/07 06:55:06;;;;;;;8.65;4.65;;;;;;;8.89;100.00;101196.94;5054822;28;20025;-48
2023/01/07 06:57:31;;;;;;;7.53;4.95;;;;;;;8.90;100.00;101200.41;5055585;28;20119;-49
2023/01/07 06:59:57;;;;;;;8.40;4.32;;;;;;;8.88;100.00;101195.22;5055714;28;20495;-47
2023/01/07 07:02:25;;;;;;;10.52;4.75;;;;;;;8.87;100.00;101190.88;5054899;28;20056;-48
2023/01/07 07:04:51;;;;;;;10.35;4.38;;;;;;;8.85;100.00;101177.06;5054954;28;20492;-46
2023/01/07 07:07:16;;;;;;;12.63;4.90;;;;;;;8.89;100.00;101178.97;5054642;28;20037;-49
2023/01/07 07:09:42;;;;;;;9.35;6.40;;;;;;;8.90;100.00;101179.84;5054902;28;20139;-49
2023/01/07 07:12:08;;;;;;;10.82;5.38;;;;;;;8.88;100.00;101176.31;5055519;28;20100;-48
2023/01/07 07:14:34;;;;;;;17.73;12.73;;;;;;;8.85;100.00;101177.06;5054189;28;20028;-47
2023/01/07 07:16:59;;;;;;;16.50;9.75;;;;;;;8.85;100.00;101171.06;5055387;28;20021;-46
2023/01/07 07:19:25;;;;;;;20.88;12.43;;;;;;;8.84;100.00;101175.31;5055198;28;20075;-47
2023/01/07 07:21:50;;;;;;;21.15;13.27;;;;;;;8.86;100.00;101167.69;5054095;28;20040;-48
2023/01/07 07:24:15;;;;;;;17.40;8.95;;;;;;;8.85;100.00;101171.94;5054932;28;20108;-46
2023/01/07 07:26:41;;;;;;;24.67;16.30;;;;;;;8.82;100.00;101165.78;5054355;28;20037;-45
2023/01/07 07:29:08;;;;;;;13.00;8.65;;;;;;;8.82;100.00;101165.78;5053698;28;20033;-47
2023/01/07 07:31:33;;;;;;;11.13;5.47;;;;;;;8.80;100.00;101173.44;5054827;28;20021;-48
2023/01/07 07:33:58;;;;;;;43.88;28.95;;;;;;;8.83;100.00;101173.59;5054710;28;20051;-48
2023/01/07 07:36:24;;;;;;;8.48;6.10;;;;;;;8.82;99.86;101170.94;5054088;28;20037;-48
2023/01/07 07:38:49;;;;;;;8.65;4.15;;;;;;;8.81;99.50;101164.06;5054478;28;20065;-47
2023/01/07 07:41:14;;;;;;;8.68;4.57;;;;;;;8.81;99.63;101164.91;5054899;28;20029;-48
2023/01/07 07:43:39;;;;;;;8.13;4.68;;;;;;;8.78;99.73;101154.53;5053786;28;20029;-47
2023/01/07 07:46:05;;;;;;;7.50;4.30;;;;;;;8.74;100.00;101155.22;5054825;28;20415;-46
2023/01/07 07:48:30;;;;;;;8.38;4.55;;;;;;;8.77;99.36;101152.75;5054573;28;20048;-44
2023/01/07 07:50:56;;;;;;;10.80;4.03;;;;;;;8.80;99.24;101152.88;5053838;28;20025;-49
2023/01/07 07:53:21;;;;;;;7.35;3.53;;;;;;;8.81;98.87;101144.34;5054471;28;20048;-47
2023/01/07 07:55:47;;;;;;;7.32;3.50;;;;;;;8.82;98.56;101140.97;5054102;28;20036;-48
2023/01/07 07:58:12;;;;;;;10.18;5.03;;;;;;;8.82;98.93;101140.97;5053738;28;20032;-45
2023/01/07 08:00:37;;;;;;;7.13;3.83;;;;;;;8.82;98.61;101143.56;5054192;28;20029;-46
2023/01/07 08:03:03;;;;;;;9.50;3.92;;;;;;;8.84;98.35;101138.47;5054450;28;20029;-44
2023/01/07 08:05:29;;;;;;;6.57;3.50;;;;;;;8.87;98.19;101136.00;5053188;28;20045;-48
2023/01/07 08:07:55;;;;;;;5.85;3.65;;;;;;;8.85;98.19;101133.38;5054275;28;20017;-48
2023/01/07 08:10:20;;;;;;;9.52;4.18;;;;;;;8.86;97.55;101124.88;5054137;28;20044;-48
2023/01/07 08:12:46;;;;;;;7.35;3.63;;;;;;;8.84;97.93;101123.91;5053244;28;20421;-47
2023/01/07 08:15:11;;;;;;;7.82;3.50;;;;;;;8.86;97.43;101127.44;5054083;28;20025;-48
2023/01/07 08:17:36;;;;;;;8.85;3.75;;;;;;;8.85;97.31;101130.81;5053103;28;20029;-44
2023/01/07 08:20:03;;;;;;;7.30;3.75;;;;;;;8.85;97.08;101135.09;5054181;28;20025;-45
2023/01/07 08:22:28;;;;;;;5.78;3.65;;;;;;;8.86;97.25;101127.44;5053749;28;20029;-44
2023/01/07 08:24:54;;;;;;;13.23;3.92;;;;;;;8.86;97.20;101127.44;5053309;28;20740;-47
2023/01/07 08:27:19;;;;;;;6.70;3.75;;;;;;;8.87;97.07;101118.91;5054135;28;20021;-44
2023/01/07 08:29:45;;;;;;;6.57;3.95;;;;;;;8.89;96.86;101117.25;5053660;28;20021;-46
2023/01/07 08:32:10;;;;;;;8.82;3.50;;;;;;;8.92;96.34;101123.38;5053157;28;20025;-46
2023/01/07 08:34:35;;;;;;;9.73;4.55;;;;;;;8.96;95.74;101122.66;5053507;28;20029;-45
2023/01/07 08:37:00;;;;;;;8.85;5.18;;;;;;;8.97;96.31;101114.13;5053724;28;20025;-46
2023/01/07 08:39:26;;;;;;;9.95;5.72;;;;;;;8.99;95.97;101112.53;5052447;28;20039;-46
2023/01/07 08:41:53;;;;;;;9.25;5.40;;;;;;;8.99;95.51;101103.09;5053731;28;20021;-45
2023/01/07 08:44:18;;;;;;;65.78;32.05;;;;;;;9.00;95.65;101106.53;5053719;28;20056;-46
2023/01/07 08:46:43;;;;;;;14.38;8.73;;;;;;;9.02;95.37;101104.91;5052629;28;20048;-49
2023/01/07 08:49:10;;;;;;;9.15;4.85;;;;;;;9.06;95.16;101111.94;5053617;28;20037;-45
2023/01/07 08:51:35;;;;;;;8.27;4.90;;;;;;;9.06;94.79;101110.25;5053267;28;20029;-45
2023/01/07 08:54:01;;;;;;;6.97;4.60;;;;;;;9.09;94.37;101103.47;5052676;28;20025;-47
2023/01/07 08:56:26;;;;;;;7.35;4.80;;;;;;;9.09;94.43;101106.94;5053564;28;20154;-46
2023/01/07 08:58:51;;;;;;;8.55;4.00;;;;;;;9.10;93.89;101100.94;5053130;28;20040;-45
2023/01/07 09:01:17;;;;;;;10.85;4.88;;;;;;;9.11;93.55;101101.84;5052640;28;20029;-46
2023/01/07 09:03:42;;;;;;;7.18;3.40;;;;;;;9.13;93.06;101106.22;5052838;28;20028;-46
2023/01/07 09:06:07;;;;;;;12.43;4.00;;;;;;;9.14;93.75;101107.09;5053361;28;20025;-46
2023/01/07 09:08:33;;;;;;;7.25;4.38;;;;;;;9.15;93.43;101104.56;5052222;28;20119;-46
2023/01/07 09:10:58;;;;;;;6.82;3.30;;;;;;;9.15;93.21;101086.56;5053287;28;20021;-48
2023/01/07 09:13:23;;;;;;;6.45;3.42;;;;;;;9.16;92.14;101085.78;5053316;28;20103;-45
2023/01/07 09:15:48;;;;;;;7.15;3.78;;;;;;;9.17;92.20;101082.38;5052049;28;20369;-46
2023/01/07 09:18:14;;;;;;;8.18;3.80;;;;;;;9.21;92.24;101083.38;5053171;28;20040;-48
2023/01/07 09:20:39;;;;;;;10.65;4.07;;;;;;;9.22;92.15;101080.88;5052653;28;20021;-45
2023/01/07 09:23:04;;;;;;;6.70;3.45;;;;;;;9.27;91.43;101080.16;5052088;28;20111;-46
2023/01/07 09:25:30;;;;;;;5.90;3.50;;;;;;;9.30;90.62;101076.03;5052594;28;20108;-47
2023/01/07 09:27:55;;;;;;;5.78;2.95;;;;;;;9.32;90.87;101081.22;5052311;28;20025;-47
2023/01/07 09:30:20;;;;;;;6.20;3.03;;;;;;;9.33;90.11;101075.25;5052738;28;20032;-46
2023/01/07 09:32:46;;;;;;;8.80;3.45;;;;;;;9.34;90.10;101074.44;5052643;28;20032;-46
2023/01/07 09:35:11;;;;;;;40.47;31.00;;;;;;;9.34;90.39;101064.16;5052066;28;20053;-45
2023/01/07 09:37:36;;;;;;;13.00;3.85;;;;;;;9.37;90.19;101069.41;5052648;28;20029;-46
2023/01/07 09:40:03;;;;;;;7.20;4.35;;;;;;;9.37;90.58;101062.59;5052708;28;20036;-45
2023/01/07 09:42:56;;;;;;;7.15;3.28;;;;;;;9.42;89.99;101055.03;5051560;28;20024;-48
2023/01/07 09:45:35;;;;;;;8.98;4.60;;;;;;;9.48;89.76;101051.81;5052741;28;20473;-45
2023/01/07 09:48:09;;;;;;;8.18;4.78;;;;;;;9.49;89.23;101048.41;5052658;28;20025;-46
2023/01/07 09:50:37;;;;;;;8.23;4.72;;;;;;;9.52;88.25;101049.41;5052356;28;20031;-43
2023/01/07 09:53:10;;;;;;;8.90;3.40;;;;;;;9.53;88.06;101040.88;5056989;28;20032;-47
2023/01/07 09:55:40;;;;;;;20.55;11.82;;;;;;;9.58;87.04;101041.06;5056586;28;20091;-46
2023/01/07 09:58:12;;;;;;;8.23;4.93;;;;;;;9.63;86.30;101036.97;5055993;28;20071;-43
2023/01/07 10:00:48;;;;;;;11.63;6.45;;;;;;;9.71;86.07;101032.09;5056347;28;20553;-48
2023/01/07 10:03:27;;;;;;;6.53;2.97;;;;;;;9.81;86.29;101026.44;5056081;28;20033;-44
2023/01/07 10:06:08;;;;;;;6.60;3.17;;;;;;;9.90;84.93;101015.56;5056743;28;20112;-44
2023/01/07 10:08:43;;;;;;;8.75;4.32;;;;;;;10.01;84.24;101016.81;5056378;28;20025;-47
2023/01/07 10:11:45;;;;;;;10.10;7.78;;;;;;;10.14;83.87;101010.41;5055698;28;20396;-47
2023/01/07 10:14:29;;;;;;;6.80;3.53;;;;;;;10.23;82.77;101003.81;5056569;28;20045;-47
2023/01/07 10:17:21;;;;;;;8.68;5.47;;;;;;;10.27;82.56;101001.38;5056365;28;20025;-47
2023/01/07 10:19:56;;;;;;;9.82;2.85;;;;;;;10.31;81.67;100984.34;5055956;28;20690;-45
2023/01/07 10:22:29;;;;;;;7.72;3.40;;;;;;;10.31;81.61;100974.03;5056196;28;20472;-45
2023/01/07 10:24:58;;;;;;;6.07;2.47;;;;;;;10.33;80.75;100969.81;5055620;28;20036;-43
2023/01/07 10:27:31;;;;;;;4.78;2.45;;;;;;;10.33;79.74;100969.81;5056175;28;20041;-46
2023/01/07 10:30:01;;;;;;;5.00;2.65;;;;;;;10.34;80.61;100956.97;5056129;28;20021;-45
2023/01/07 10:32:31;;;;;;;5.38;2.40;;;;;;;10.39;80.38;100957.13;5055513;28;20099;-46
2023/01/07 10:34:58;;;;;;;5.22;2.78;;;;;;;10.39;80.47;100944.25;5056405;28;20017;-48
2023/01/07 10:37:32;;;;;;;4.82;2.53;;;;;;;10.48;79.55;100943.69;5056078;28;20025;-44
2023/01/07 10:40:29;;;;;;;4.57;2.40;;;;;;;10.49;78.43;100930.84;5055068;28;20353;-46
2023/01/07 10:43:14;;;;;;;4.47;2.25;;;;;;;10.50;77.68;100932.59;5055860;28;20372;-47
2023/01/07 10:46:04;;;;;;;3.90;2.10;;;;;;;10.48;77.25;100929.13;5055006;28;20118;-46
2023/01/07 10:48:50;;;;;;;3.28;1.73;;;;;;;10.49;75.57;100920.53;5055485;28;20028;-43
2023/01/07 10:51:34;;;;;;;4.05;2.03;;;;;;;10.52;75.96;100930.94;5056001;28;20052;-42
2023/01/07 10:54:09;;;;;;;4.30;2.25;;;;;;;10.65;76.72;100927.06;5055035;28;20492;-45
2023/01/07 10:56:40;;;;;;;4.32;2.22;;;;;;;10.79;76.48;100919.72;5055338;28;20166;-47
2023/01/07 10:59:12;;;;;;;5.25;2.33;;;;;;;10.82;74.59;100912.09;5055628;28;20028;-47
2023/01/07 11:01:43;;;;;;;6.97;3.00;;;;;;;10.84;74.44;100899.22;5054485;28;20029;-47
2023/01/07 11:04:13;;;;;;;4.57;2.40;;;;;;;10.99;74.33;100898.81;5055375;28;20077;-47
2023/01/07 11:06:57;;;;;;;4.53;2.35;;;;;;;11.06;73.90;100903.31;5054651;28;20021;-47
2023/01/07 11:09:30;;;;;;;8.13;4.78;;;;;;;10.99;73.01;100901.41;5055189;28;20055;-47
2023/01/07 11:12:00;;;;;;;8.85;4.28;;;;;;;10.97;73.01;100900.47;5055268;28;20538;-47
2023/01/07 11:14:29;;;;;;;11.50;5.47;;;;;;;10.98;72.46;100895.34;5054676;28;20052;-45
2023/01/07 11:17:17;;;;;;;4.25;2.80;;;;;;;11.02;72.52;100886.00;5055481;28;20025;-47
2023/01/07 11:19:47;;;;;;;5.30;2.10;;;;;;;11.13;73.26;100889.75;5054621;28;20041;-47
2023/01/07 11:22:25;;;;;;;4.47;2.67;;;;;;;11.34;73.09;100878.28;5054461;28;20023;-45
2023/01/07 11:24:51;;;;;;;7.53;2.40;;;;;;;11.44;71.91;100871.63;5055058;28;20056;-47
2023/01/07 11:27:18;;;;;;;6.65;2.97;;;;;;;11.30;70.20;100863.56;5055297;28;20047;-47
2023/01/07 11:29:54;;;;;;;6.82;2.63;;;;;;;11.14;70.13;100857.97;5054032;28;20036;-45